sensor_id;sensor_type;location;lat;lon;timestamp;pressure;altitude;pressure_sealevel;temperature;humidity
55590;BME280;41452;42.780;23.116;2022-12-07T00:00:49;94328.63;;;5.18;100.00
55590;BME280;41452;42.780;23.116;2022-12-07T00:03:14;94283.13;;;4.87;100.00
55590;BME280;41452;42.780;23.116;2022-12-07T00:05:39;94294.16;;;4.96;100.00
55590;BME280;41452;42.780;23.116;2022-12-07T00:08:05;94325.22;;;5.18;100.00
55590;BME280;41452;42.780;23.116;2022-12-07T00:10:33;94318.00;;;5.13;100.00
55590;BME280;41452;42.780;23.116;2022-12-07T00:12:58;94331.44;;;5.23;100.00
55590;BME280;41452;42.780;23.116;2022-12-07T00:15:24;94329.22;;;5.20;100.00
55590;BME280;41452;42.780;23.116;2022-12-07T00:17:49;94339.22;;;5.17;100.00
55590;BME280;41452;42.780;23.116;2022-12-07T00:20:14;94327.00;;;5.10;100.00
55590;BME280;41452;42.780;23.116;2022-12-07T00:22:40;94262.03;;;4.62;100.00
55590;BME280;41452;42.780;23.116;2022-12-07T00:25:05;94338.22;;;5.11;100.00
55590;BME280;41452;42.780;23.116;2022-12-07T00:27:31;94328.00;;;5.09;100.00
55590;BME280;41452;42.780;23.116;2022-12-07T00:29:56;94324.59;;;5.09;100.00
55590;BME280;41452;42.780;23.116;2022-12-07T00:32:22;94313.00;;;5.05;100.00
55590;BME280;41452;42.780;23.116;2022-12-07T00:34:47;94286.91;;;4.91;100.00
55590;BME280;41452;42.780;23.116;2022-12-07T00:37:12;94323.81;;;5.15;100.00
55590;BME280;41452;42.780;23.116;2022-12-07T00:39:38;94321.19;;;5.15;100.00
55590;BME280;41452;42.780;23.116;2022-12-07T00:42:03;94323.63;;;5.10;100.00
55590;BME280;41452;42.780;23.116;2022-12-07T00:44:29;94325.00;;;5.06;100.00
55590;BME280;41452;42.780;23.116;2022-12-07T00:46:54;94331.22;;;5.11;100.00
55590;BME280;41452;42.780;23.116;2022-12-07T00:49:21;94333.22;;;5.09;100.00
55590;BME280;41452;42.780;23.116;2022-12-07T00:51:48;94319.97;;;4.98;100.00
55590;BME280;41452;42.780;23.116;2022-12-07T00:54:14;94255.41;;;4.60;100.00
55590;BME280;41452;42.780;23.116;2022-12-07T00:56:39;94332.78;;;4.92;100.00
55590;BME280;41452;42.780;23.116;2022-12-07T00:59:05;94330.16;;;4.99;100.00
55590;BME280;41452;42.780;23.116;2022-12-07T01:01:34;94320.78;;;4.98;100.00
55590;BME280;41452;42.780;23.116;2022-12-07T01:04:01;94293.91;;;4.84;100.00
55590;BME280;41452;42.780;23.116;2022-12-07T01:06:27;94307.97;;;4.97;100.00
55590;BME280;41452;42.780;23.116;2022-12-07T01:08:53;94262.03;;;4.69;100.00
55590;BME280;41452;42.780;23.116;2022-12-07T01:11:22;94305.56;;;5.02;100.00
55590;BME280;41452;42.780;23.116;2022-12-07T01:13:50;94306.38;;;5.02;100.00
55590;BME280;41452;42.780;23.116;2022-12-07T01:16:16;94303.72;;;4.95;100.00
55590;BME280;41452;42.780;23.116;2022-12-07T01:18:45;94309.16;;;4.94;100.00
55590;BME280;41452;42.780;23.116;2022-12-07T01:21:15;94260.44;;;4.68;100.00
55590;BME280;41452;42.780;23.116;2022-12-07T01:23:41;94311.38;;;5.04;100.00
55590;BME280;41452;42.780;23.116;2022-12-07T01:26:09;94307.56;;;5.00;100.00
55590;BME280;41452;42.780;23.116;2022-12-07T01:28:36;94296.75;;;4.96;100.00
55590;BME280;41452;42.780;23.116;2022-12-07T01:31:04;94292.09;;;4.85;100.00
55590;BME280;41452;42.780;23.116;2022-12-07T01:33:34;94297.50;;;4.90;100.00
55590;BME280;41452;42.780;23.116;2022-12-07T01:36:04;94268.06;;;4.76;100.00
55590;BME280;41452;42.780;23.116;2022-12-07T01:38:31;94301.75;;;4.91;100.00
55590;BME280;41452;42.780;23.116;2022-12-07T01:40:57;94302.31;;;4.86;100.00
55590;BME280;41452;42.780;23.116;2022-12-07T01:43:24;94296.31;;;4.86;100.00
55590;BME280;41452;42.780;23.116;2022-12-07T01:45:51;94292.50;;;4.82;100.00
55590;BME280;41452;42.780;23.116;2022-12-07T01:48:19;94292.31;;;4.90;100.00
55590;BME280;41452;42.780;23.116;2022-12-07T01:50:48;94291.88;;;4.80;100.00
55590;BME280;41452;42.780;23.116;2022-12-07T01:53:16;94288.91;;;4.83;100.00
55590;BME280;41452;42.780;23.116;2022-12-07T01:55:45;94295.91;;;4.82;100.00
55590;BME280;41452;42.780;23.116;2022-12-07T01:58:13;94289.91;;;4.88;100.00
55590;BME280;41452;42.780;23.116;2022-12-07T02:00:41;94290.91;;;4.87;100.00
55590;BME280;41452;42.780;23.116;2022-12-07T02:05:44;94273.88;;;4.78;100.00
55590;BME280;41452;42.780;23.116;2022-12-07T02:08:11;94280.88;;;4.78;100.00
55590;BME280;41452;42.780;23.116;2022-12-07T02:10:37;94275.47;;;4.79;100.00
55590;BME280;41452;42.780;23.116;2022-12-07T02:15:44;94273.69;;;4.86;100.00
55590;BME280;41452;42.780;23.116;2022-12-07T02:21:09;94268.91;;;4.83;100.00
55590;BME280;41452;42.780;23.116;2022-12-07T02:30:06;94264.44;;;4.70;100.00
55590;BME280;41452;42.780;23.116;2022-12-07T02:37:58;94260.22;;;4.63;100.00
55590;BME280;41452;42.780;23.116;2022-12-07T02:40:39;94260.03;;;4.64;100.00
55590;BME280;41452;42.780;23.116;2022-12-07T02:43:19;94260.81;;;4.65;100.00
55590;BME280;41452;42.780;23.116;2022-12-07T02:45:47;94257.22;;;4.59;100.00
55590;BME280;41452;42.780;23.116;2022-12-07T02:48:17;94255.81;;;4.63;100.00
55590;BME280;41452;42.780;23.116;2022-12-07T02:50:53;94253.63;;;4.67;100.00
55590;BME280;41452;42.780;23.116;2022-12-07T02:53:48;94251.03;;;4.67;100.00
55590;BME280;41452;42.780;23.116;2022-12-07T02:59:29;94251.44;;;4.70;100.00
55590;BME280;41452;42.780;23.116;2022-12-07T03:17:59;94246.22;;;4.64;100.00
55590;BME280;41452;42.780;23.116;2022-12-07T03:20:29;94247.44;;;4.68;100.00
55590;BME280;41452;42.780;23.116;2022-12-07T03:22:56;94248.19;;;4.62;100.00
55590;BME280;41452;42.780;23.116;2022-12-07T03:25:23;94217.13;;;4.40;100.00
55590;BME280;41452;42.780;23.116;2022-12-07T03:28:01;94248.63;;;4.59;100.00
55590;BME280;41452;42.780;23.116;2022-12-07T03:30:32;94252.19;;;4.57;100.00
55590;BME280;41452;42.780;23.116;2022-12-07T03:33:04;94252.78;;;4.53;100.00
55590;BME280;41452;42.780;23.116;2022-12-07T03:35:40;94255.59;;;4.51;100.00
55590;BME280;41452;42.780;23.116;2022-12-07T03:38:26;94222.09;;;4.35;100.00
55590;BME280;41452;42.780;23.116;2022-12-07T03:40:58;94247.38;;;4.54;100.00
55590;BME280;41452;42.780;23.116;2022-12-07T03:43:28;94239.97;;;4.51;100.00
55590;BME280;41452;42.780;23.116;2022-12-07T03:48:50;94241.59;;;4.59;100.00
55590;BME280;41452;42.780;23.116;2022-12-07T03:51:31;94247.00;;;4.57;100.00
55590;BME280;41452;42.780;23.116;2022-12-07T03:54:17;94238.78;;;4.54;100.00
55590;BME280;41452;42.780;23.116;2022-12-07T03:56:45;94211.31;;;4.38;100.00
55590;BME280;41452;42.780;23.116;2022-12-07T03:59:13;94209.28;;;4.33;100.00
55590;BME280;41452;42.780;23.116;2022-12-07T04:01:42;94241.41;;;4.61;100.00
55590;BME280;41452;42.780;23.116;2022-12-07T04:04:07;94242.41;;;4.60;100.00
55590;BME280;41452;42.780;23.116;2022-12-07T04:06:32;94240.63;;;4.60;100.00
55590;BME280;41452;42.780;23.116;2022-12-07T04:08:58;94239.41;;;4.63;100.00
55590;BME280;41452;42.780;23.116;2022-12-07T04:11:23;94241.22;;;4.62;100.00
55590;BME280;41452;42.780;23.116;2022-12-07T04:13:49;94250.59;;;4.63;100.00
55590;BME280;41452;42.780;23.116;2022-12-07T04:16:33;94244.22;;;4.66;100.00
55590;BME280;41452;42.780;23.116;2022-12-07T04:18:58;94236.63;;;4.64;100.00
55590;BME280;41452;42.780;23.116;2022-12-07T04:21:23;94241.44;;;4.67;100.00
55590;BME280;41452;42.780;23.116;2022-12-07T04:23:49;94233.22;;;4.70;100.00
55590;BME280;41452;42.780;23.116;2022-12-07T04:26:14;94219.19;;;4.58;100.00
55590;BME280;41452;42.780;23.116;2022-12-07T04:28:39;94229.63;;;4.71;100.00
55590;BME280;41452;42.780;23.116;2022-12-07T04:31:05;94239.63;;;4.68;100.00
55590;BME280;41452;42.780;23.116;2022-12-07T04:33:30;94239.78;;;4.60;100.00
55590;BME280;41452;42.780;23.116;2022-12-07T04:35:55;94237.56;;;4.56;100.00
55590;BME280;41452;42.780;23.116;2022-12-07T04:38:21;94237.16;;;4.53;100.00
55590;BME280;41452;42.780;23.116;2022-12-07T04:40:46;94194.88;;;4.17;100.00
55590;BME280;41452;42.780;23.116;2022-12-07T04:43:12;94250.16;;;4.53;100.00
55590;BME280;41452;42.780;23.116;2022-12-07T04:45:37;94249.38;;;4.52;100.00
55590;BME280;41452;42.780;23.116;2022-12-07T04:48:03;94239.16;;;4.51;100.00
55590;BME280;41452;42.780;23.116;2022-12-07T04:50:28;94217.72;;;4.42;100.00
55590;BME280;41452;42.780;23.116;2022-12-07T04:52:53;94233.38;;;4.55;100.00
55590;BME280;41452;42.780;23.116;2022-12-07T04:55:19;94236.59;;;4.57;100.00
55590;BME280;41452;42.780;23.116;2022-12-07T04:57:44;94236.22;;;4.61;100.00
55590;BME280;41452;42.780;23.116;2022-12-07T05:00:10;94231.56;;;4.56;100.00
55590;BME280;41452;42.780;23.116;2022-12-07T05:02:35;94216.13;;;4.41;100.00
55590;BME280;41452;42.780;23.116;2022-12-07T05:05:01;94242.97;;;4.48;100.00
55590;BME280;41452;42.780;23.116;2022-12-07T05:07:26;94239.53;;;4.41;100.00
55590;BME280;41452;42.780;23.116;2022-12-07T05:09:51;94240.16;;;4.43;100.00
55590;BME280;41452;42.780;23.116;2022-12-07T05:12:17;94243.34;;;4.45;100.00
55590;BME280;41452;42.780;23.116;2022-12-07T05:14:42;94233.97;;;4.44;100.00
55590;BME280;41452;42.780;23.116;2022-12-07T05:17:07;94238.94;;;4.39;100.00
55590;BME280;41452;42.780;23.116;2022-12-07T05:19:33;94240.75;;;4.45;100.00
55590;BME280;41452;42.780;23.116;2022-12-07T05:21:58;94243.16;;;4.47;100.00
55590;BME280;41452;42.780;23.116;2022-12-07T05:24:24;94223.28;;;4.26;100.00
55590;BME280;41452;42.780;23.116;2022-12-07T05:26:49;94245.50;;;4.35;100.00
55590;BME280;41452;42.780;23.116;2022-12-07T05:29:16;94242.06;;;4.28;100.00
55590;BME280;41452;42.780;23.116;2022-12-07T05:31:43;94238.25;;;4.24;100.00
55590;BME280;41452;42.780;23.116;2022-12-07T05:34:09;94239.66;;;4.26;100.00
55590;BME280;41452;42.780;23.116;2022-12-07T05:36:34;94246.91;;;4.31;100.00
55590;BME280;41452;42.780;23.116;2022-12-07T05:39:00;94247.69;;;4.31;100.00
55590;BME280;41452;42.780;23.116;2022-12-07T05:41:25;94249.88;;;4.28;100.00
55590;BME280;41452;42.780;23.116;2022-12-07T05:44:09;94238.84;;;4.19;100.00
55590;BME280;41452;42.780;23.116;2022-12-07T05:46:35;94241.06;;;4.22;100.00
55590;BME280;41452;42.780;23.116;2022-12-07T05:49:00;94229.63;;;4.16;100.00
55590;BME280;41452;42.780;23.116;2022-12-07T05:51:26;94231.84;;;4.19;100.00
55590;BME280;41452;42.780;23.116;2022-12-07T05:53:51;94232.03;;;4.18;100.00
55590;BME280;41452;42.780;23.116;2022-12-07T05:56:17;94242.84;;;4.22;100.00
55590;BME280;41452;42.780;23.116;2022-12-07T05:58:42;94227.84;;;4.17;100.00
55590;BME280;41452;42.780;23.116;2022-12-07T06:01:26;94227.19;;;4.08;100.00
55590;BME280;41452;42.780;23.116;2022-12-07T06:03:52;94234.00;;;4.09;100.00
55590;BME280;41452;42.780;23.116;2022-12-07T06:06:17;94232.84;;;4.18;100.00
55590;BME280;41452;42.780;23.116;2022-12-07T06:08:43;94238.41;;;4.15;100.00
55590;BME280;41452;42.780;23.116;2022-12-07T06:11:08;94235.16;;;4.07;100.00
55590;BME280;41452;42.780;23.116;2022-12-07T06:13:52;94240.19;;;4.08;100.00
55590;BME280;41452;42.780;23.116;2022-12-07T06:16:18;94240.78;;;4.10;100.00
55590;BME280;41452;42.780;23.116;2022-12-07T06:18:43;94237.78;;;4.07;100.00
55590;BME280;41452;42.780;23.116;2022-12-07T06:21:08;94242.41;;;4.11;100.00
55590;BME280;41452;42.780;23.116;2022-12-07T06:23:34;94246.63;;;4.12;100.00
55590;BME280;41452;42.780;23.116;2022-12-07T06:25:59;94246.19;;;4.09;100.00
55590;BME280;41452;42.780;23.116;2022-12-07T06:28:24;94244.16;;;4.04;100.00
55590;BME280;41452;42.780;23.116;2022-12-07T06:31:00;94198.25;;;3.76;100.00
55590;BME280;41452;42.780;23.116;2022-12-07T06:33:26;94254.78;;;4.09;100.00
55590;BME280;41452;42.780;23.116;2022-12-07T06:35:52;94254.19;;;4.07;100.00
55590;BME280;41452;42.780;23.116;2022-12-07T06:38:17;94254.41;;;4.12;100.00
55590;BME280;41452;42.780;23.116;2022-12-07T06:40:43;94259.84;;;4.17;100.00
55590;BME280;41452;42.780;23.116;2022-12-07T06:43:08;94253.22;;;4.15;100.00
55590;BME280;41452;42.780;23.116;2022-12-07T06:45:34;94253.19;;;4.08;100.00
55590;BME280;41452;42.780;23.116;2022-12-07T06:47:59;94169.19;;;3.59;100.00
55590;BME280;41452;42.780;23.116;2022-12-07T06:50:24;94259.22;;;4.15;100.00
55590;BME280;41452;42.780;23.116;2022-12-07T06:52:50;94243.59;;;4.09;100.00
55590;BME280;41452;42.780;23.116;2022-12-07T06:55:16;94252.88;;;4.25;100.00
55590;BME280;41452;42.780;23.116;2022-12-07T06:57:41;94212.38;;;4.02;100.00
55590;BME280;41452;42.780;23.116;2022-12-07T07:00:07;94255.28;;;4.33;100.00
55590;BME280;41452;42.780;23.116;2022-12-07T07:02:32;94247.69;;;4.31;100.00
55590;BME280;41452;42.780;23.116;2022-12-07T07:04:58;94262.53;;;4.37;100.00
55590;BME280;41452;42.780;23.116;2022-12-07T07:07:23;94264.91;;;4.32;100.00
55590;BME280;41452;42.780;23.116;2022-12-07T07:09:49;94258.13;;;4.38;100.00
55590;BME280;41452;42.780;23.116;2022-12-07T07:12:14;94256.72;;;4.42;100.00
55590;BME280;41452;42.780;23.116;2022-12-07T07:14:39;94257.38;;;4.44;100.00
55590;BME280;41452;42.780;23.116;2022-12-07T07:17:05;94251.56;;;4.49;100.00
55590;BME280;41452;42.780;23.116;2022-12-07T07:19:30;94257.19;;;4.52;100.00
55590;BME280;41452;42.780;23.116;2022-12-07T07:21:55;94262.97;;;4.54;100.00
55590;BME280;41452;42.780;23.116;2022-12-07T07:24:21;94259.00;;;4.59;100.00
55590;BME280;41452;42.780;23.116;2022-12-07T07:26:46;94250.59;;;4.63;100.00
55590;BME280;41452;42.780;23.116;2022-12-07T07:29:12;94258.81;;;4.67;100.00
55590;BME280;41452;42.780;23.116;2022-12-07T07:31:37;94257.44;;;4.64;100.00
55590;BME280;41452;42.780;23.116;2022-12-07T07:34:02;94259.44;;;4.69;100.00
55590;BME280;41452;42.780;23.116;2022-12-07T07:36:28;94260.84;;;4.71;100.00
55590;BME280;41452;42.780;23.116;2022-12-07T07:38:53;94259.66;;;4.74;100.00
55590;BME280;41452;42.780;23.116;2022-12-07T07:41:18;94260.25;;;4.76;100.00
55590;BME280;41452;42.780;23.116;2022-12-07T07:43:44;94255.88;;;4.76;100.00
55590;BME280;41452;42.780;23.116;2022-12-07T07:46:09;94244.63;;;4.63;100.00
55590;BME280;41452;42.780;23.116;2022-12-07T07:48:35;94189.06;;;4.22;100.00
55590;BME280;41452;42.780;23.116;2022-12-07T07:51:05;94266.47;;;4.75;100.00
55590;BME280;41452;42.780;23.116;2022-12-07T07:53:30;94243.00;;;4.62;100.00
55590;BME280;41452;42.780;23.116;2022-12-07T07:55:56;94166.25;;;4.11;100.00
55590;BME280;41452;42.780;23.116;2022-12-07T07:58:21;94261.84;;;4.70;100.00
55590;BME280;41452;42.780;23.116;2022-12-07T08:00:47;94154.00;;;4.05;100.00
55590;BME280;41452;42.780;23.116;2022-12-07T08:03:12;94254.63;;;4.72;100.00
55590;BME280;41452;42.780;23.116;2022-12-07T08:05:38;94196.09;;;4.35;100.00
55590;BME280;41452;42.780;23.116;2022-12-07T08:08:03;94257.44;;;4.64;100.00
55590;BME280;41452;42.780;23.116;2022-12-07T08:10:29;94247.97;;;4.50;100.00
55590;BME280;41452;42.780;23.116;2022-12-07T08:12:54;94258.59;;;4.55;100.00
55590;BME280;41452;42.780;23.116;2022-12-07T08:15:40;94265.63;;;4.61;100.00
55590;BME280;41452;42.780;23.116;2022-12-07T08:18:06;94260.44;;;4.68;100.00
55590;BME280;41452;42.780;23.116;2022-12-07T08:20:32;94261.44;;;4.73;100.00
55590;BME280;41452;42.780;23.116;2022-12-07T08:22:58;94247.78;;;4.58;100.00
55590;BME280;41452;42.780;23.116;2022-12-07T08:25:23;94251.84;;;4.67;100.00
55590;BME280;41452;42.780;23.116;2022-12-07T08:27:49;94260.47;;;4.74;100.00
55590;BME280;41452;42.780;23.116;2022-12-07T08:30:16;94256.66;;;4.77;100.00
55590;BME280;41452;42.780;23.116;2022-12-07T08:32:41;94251.66;;;4.82;100.00
55590;BME280;41452;42.780;23.116;2022-12-07T08:35:07;94258.06;;;4.86;100.00
55590;BME280;41452;42.780;23.116;2022-12-07T08:37:33;94221.41;;;4.68;100.00
55590;BME280;41452;42.780;23.116;2022-12-07T08:39:59;94228.44;;;4.74;100.00
55590;BME280;41452;42.780;23.116;2022-12-07T08:42:24;94247.50;;;4.94;100.00
55590;BME280;41452;42.780;23.116;2022-12-07T08:44:54;94250.09;;;4.94;100.00
55590;BME280;41452;42.780;23.116;2022-12-07T08:47:20;94235.28;;;4.95;100.00
55590;BME280;41452;42.780;23.116;2022-12-07T08:49:47;94234.28;;;5.03;100.00
55590;BME280;41452;42.780;23.116;2022-12-07T08:52:15;94195.59;;;4.80;100.00
55590;BME280;41452;42.780;23.116;2022-12-07T08:54:41;94187.22;;;4.84;100.00
55590;BME280;41452;42.780;23.116;2022-12-07T08:57:08;94231.91;;;5.28;100.00
55590;BME280;41452;42.780;23.116;2022-12-07T08:59:35;94226.69;;;5.34;100.00
55590;BME280;41452;42.780;23.116;2022-12-07T09:02:02;94215.69;;;5.39;100.00
55590;BME280;41452;42.780;23.116;2022-12-07T09:04:27;94222.28;;;5.42;100.00
55590;BME280;41452;42.780;23.116;2022-12-07T09:06:54;94149.00;;;4.91;100.00
55590;BME280;41452;42.780;23.116;2022-12-07T09:09:19;94218.09;;;5.41;100.00
55590;BME280;41452;42.780;23.116;2022-12-07T09:11:45;94211.06;;;5.34;100.00
55590;BME280;41452;42.780;23.116;2022-12-07T09:14:11;94197.88;;;5.23;100.00
55590;BME280;41452;42.780;23.116;2022-12-07T09:16:37;94209.28;;;5.28;100.00
55590;BME280;41452;42.780;23.116;2022-12-07T09:19:03;94196.06;;;5.23;100.00
55590;BME280;41452;42.780;23.116;2022-12-07T09:21:28;94209.88;;;5.37;100.00
55590;BME280;41452;42.780;23.116;2022-12-07T09:23:54;94207.47;;;5.42;100.00
55590;BME280;41452;42.780;23.116;2022-12-07T09:26:19;94187.84;;;5.26;100.00
55590;BME280;41452;42.780;23.116;2022-12-07T09:28:45;94206.25;;;5.51;100.00
55590;BME280;41452;42.780;23.116;2022-12-07T09:31:10;94187.81;;;5.40;100.00
55590;BME280;41452;42.780;23.116;2022-12-07T09:33:35;94199.44;;;5.57;100.00
55590;BME280;41452;42.780;23.116;2022-12-07T09:36:01;94188.81;;;5.52;100.00
55590;BME280;41452;42.780;23.116;2022-12-07T09:38:27;94196.03;;;5.63;100.00
55590;BME280;41452;42.780;23.116;2022-12-07T09:40:55;94197.81;;;5.63;100.00
55590;BME280;41452;42.780;23.116;2022-12-07T09:43:25;94189.22;;;5.56;100.00
55590;BME280;41452;42.780;23.116;2022-12-07T09:45:52;94191.25;;;5.40;100.00
55590;BME280;41452;42.780;23.116;2022-12-07T09:48:36;94197.06;;;5.49;100.00
55590;BME280;41452;42.780;23.116;2022-12-07T09:51:03;94191.03;;;5.48;100.00
55590;BME280;41452;42.780;23.116;2022-12-07T09:53:37;94144.56;;;5.39;100.00
55590;BME280;41452;42.780;23.116;2022-12-07T09:56:03;94139.75;;;5.42;100.00
55590;BME280;41452;42.780;23.116;2022-12-07T09:58:31;94168.56;;;5.74;100.00
55590;BME280;41452;42.780;23.116;2022-12-07T10:01:00;94170.16;;;5.68;100.00
55590;BME280;41452;42.780;23.116;2022-12-07T10:03:27;94164.13;;;5.75;100.00
55590;BME280;41452;42.780;23.116;2022-12-07T10:05:54;94151.91;;;5.75;100.00
55590;BME280;41452;42.780;23.116;2022-12-07T10:08:20;94160.56;;;5.69;100.00
55590;BME280;41452;42.780;23.116;2022-12-07T10:10:51;94157.31;;;5.74;100.00
55590;BME280;41452;42.780;23.116;2022-12-07T10:13:22;94166.53;;;5.83;100.00
55590;BME280;41452;42.780;23.116;2022-12-07T10:15:58;94160.88;;;5.93;100.00
55590;BME280;41452;42.780;23.116;2022-12-07T10:18:33;94158.03;;;6.07;100.00
55590;BME280;41452;42.780;23.116;2022-12-07T10:24:05;94152.00;;;6.20;100.00
55590;BME280;41452;42.780;23.116;2022-12-07T10:29:18;94151.25;;;6.06;100.00
55590;BME280;41452;42.780;23.116;2022-12-07T10:31:46;94147.78;;;6.13;100.00
55590;BME280;41452;42.780;23.116;2022-12-07T10:34:23;94151.78;;;6.22;100.00
55590;BME280;41452;42.780;23.116;2022-12-07T10:36:52;94139.06;;;6.32;100.00
55590;BME280;41452;42.780;23.116;2022-12-07T10:39:23;94135.28;;;6.35;100.00
55590;BME280;41452;42.780;23.116;2022-12-07T10:42:02;94127.56;;;6.46;100.00
55590;BME280;41452;42.780;23.116;2022-12-07T10:44:30;94127.34;;;6.48;100.00
55590;BME280;41452;42.780;23.116;2022-12-07T10:58:00;94105.28;;;6.51;100.00
55590;BME280;41452;42.780;23.116;2022-12-07T11:00:37;94093.66;;;6.46;100.00
55590;BME280;41452;42.780;23.116;2022-12-07T11:03:38;94087.81;;;6.51;100.00
55590;BME280;41452;42.780;23.116;2022-12-07T11:06:38;94096.00;;;6.55;100.00
55590;BME280;41452;42.780;23.116;2022-12-07T11:09:29;94091.16;;;6.58;100.00
55590;BME280;41452;42.780;23.116;2022-12-07T11:12:05;94081.88;;;6.69;100.00
55590;BME280;41452;42.780;23.116;2022-12-07T11:17:26;94079.38;;;6.81;100.00
55590;BME280;41452;42.780;23.116;2022-12-07T11:20:46;94084.56;;;6.88;100.00
55590;BME280;41452;42.780;23.116;2022-12-07T11:31:37;94073.03;;;6.95;100.00
55590;BME280;41452;42.780;23.116;2022-12-07T11:34:21;94072.59;;;6.98;100.00
55590;BME280;41452;42.780;23.116;2022-12-07T11:36:52;94063.84;;;7.11;100.00
55590;BME280;41452;42.780;23.116;2022-12-07T11:41:48;94055.22;;;7.11;100.00
55590;BME280;41452;42.780;23.116;2022-12-07T11:44:25;94054.41;;;7.10;100.00
55590;BME280;41452;42.780;23.116;2022-12-07T11:47:15;93993.44;;;6.79;100.00
55590;BME280;41452;42.780;23.116;2022-12-07T11:52:48;94048.50;;;7.21;100.00
55590;BME280;41452;42.780;23.116;2022-12-07T12:00:41;94046.97;;;7.51;99.75
55590;BME280;41452;42.780;23.116;2022-12-07T12:03:14;94027.16;;;7.43;99.97
55590;BME280;41452;42.780;23.116;2022-12-07T12:05:41;94036.88;;;7.54;98.58
55590;BME280;41452;42.780;23.116;2022-12-07T12:09:00;94027.47;;;7.53;98.50
55590;BME280;41452;42.780;23.116;2022-12-07T12:14:11;94029.41;;;7.39;99.41
55590;BME280;41452;42.780;23.116;2022-12-07T12:19:54;94022.44;;;7.52;98.35
55590;BME280;41452;42.780;23.116;2022-12-07T12:22:32;94016.28;;;7.28;97.66
55590;BME280;41452;42.780;23.116;2022-12-07T12:24:58;94020.19;;;7.37;98.53
55590;BME280;41452;42.780;23.116;2022-12-07T12:27:30;94024.56;;;7.43;98.20
55590;BME280;41452;42.780;23.116;2022-12-07T12:30:02;94006.97;;;7.50;98.54
55590;BME280;41452;42.780;23.116;2022-12-07T12:32:32;93998.25;;;7.56;97.85
55590;BME280;41452;42.780;23.116;2022-12-07T12:37:46;93998.72;;;7.53;96.58
55590;BME280;41452;42.780;23.116;2022-12-07T12:42:48;94005.81;;;7.65;96.19
55590;BME280;41452;42.780;23.116;2022-12-07T12:45:30;93993.25;;;7.73;96.17
55590;BME280;41452;42.780;23.116;2022-12-07T12:48:03;93995.78;;;7.80;94.80
55590;BME280;41452;42.780;23.116;2022-12-07T12:50:37;93997.47;;;7.56;95.90
55590;BME280;41452;42.780;23.116;2022-12-07T12:53:24;93995.22;;;7.59;96.39
55590;BME280;41452;42.780;23.116;2022-12-07T12:58:33;93983.13;;;7.77;94.83
55590;BME280;41452;42.780;23.116;2022-12-07T13:03:56;93992.13;;;7.81;94.08
55590;BME280;41452;42.780;23.116;2022-12-07T13:08:56;93993.16;;;7.80;94.35
55590;BME280;41452;42.780;23.116;2022-12-07T13:11:40;93985.31;;;7.80;94.36
55590;BME280;41452;42.780;23.116;2022-12-07T13:14:40;93985.66;;;7.84;94.11
55590;BME280;41452;42.780;23.116;2022-12-07T13:17:10;93982.38;;;7.88;94.58
55590;BME280;41452;42.780;23.116;2022-12-07T13:27:48;93977.34;;;7.87;95.34
55590;BME280;41452;42.780;23.116;2022-12-07T13:30:18;93982.94;;;7.90;94.63
55590;BME280;41452;42.780;23.116;2022-12-07T13:32:54;93980.47;;;7.95;94.71
55590;BME280;41452;42.780;23.116;2022-12-07T13:35:30;93981.28;;;7.96;94.73
55590;BME280;41452;42.780;23.116;2022-12-07T13:37:56;93946.69;;;7.82;94.84
55590;BME280;41452;42.780;23.116;2022-12-07T13:40:23;93967.59;;;7.94;94.84
55590;BME280;41452;42.780;23.116;2022-12-07T13:42:57;93969.22;;;7.95;95.68
55590;BME280;41452;42.780;23.116;2022-12-07T13:45:25;93970.13;;;8.00;95.16
55590;BME280;41452;42.780;23.116;2022-12-07T13:48:36;93984.81;;;8.02;95.54
55590;BME280;41452;42.780;23.116;2022-12-07T13:51:01;93973.16;;;7.86;95.71
55590;BME280;41452;42.780;23.116;2022-12-07T13:53:27;93984.56;;;7.91;95.81
55590;BME280;41452;42.780;23.116;2022-12-07T13:55:59;93956.28;;;7.70;95.12
55590;BME280;41452;42.780;23.116;2022-12-07T13:58:26;93976.22;;;7.83;95.57
55590;BME280;41452;42.780;23.116;2022-12-07T14:00:52;93971.00;;;7.83;95.14
55590;BME280;41452;42.780;23.116;2022-12-07T14:05:44;93972.47;;;7.90;94.48
55590;BME280;41452;42.780;23.116;2022-12-07T14:15:58;93981.81;;;7.86;95.11
55590;BME280;41452;42.780;23.116;2022-12-07T14:18:38;93978.19;;;7.87;95.33
55590;BME280;41452;42.780;23.116;2022-12-07T14:21:16;93971.91;;;7.88;94.68
55590;BME280;41452;42.780;23.116;2022-12-07T14:23:43;93978.84;;;7.83;95.37
55590;BME280;41452;42.780;23.116;2022-12-07T14:28:36;93981.09;;;7.79;94.84
55590;BME280;41452;42.780;23.116;2022-12-07T14:31:03;93978.69;;;7.77;94.60
55590;BME280;41452;42.780;23.116;2022-12-07T14:33:32;93968.06;;;7.60;94.79
55590;BME280;41452;42.780;23.116;2022-12-07T14:35:58;93988.66;;;7.69;94.41
55590;BME280;41452;42.780;23.116;2022-12-07T14:38:24;93984.91;;;7.65;94.32
55590;BME280;41452;42.780;23.116;2022-12-07T14:40:53;93987.59;;;7.58;94.40
55590;BME280;41452;42.780;23.116;2022-12-07T14:43:39;93984.69;;;7.48;94.47
55590;BME280;41452;42.780;23.116;2022-12-07T14:46:05;93990.22;;;7.39;94.86
55590;BME280;41452;42.780;23.116;2022-12-07T14:48:30;93977.81;;;7.16;94.59
55590;BME280;41452;42.780;23.116;2022-12-07T14:50:56;93984.19;;;7.20;94.40
55590;BME280;41452;42.780;23.116;2022-12-07T14:53:24;93991.47;;;7.18;94.44
55590;BME280;41452;42.780;23.116;2022-12-07T14:55:53;93986.31;;;7.12;94.25
55590;BME280;41452;42.780;23.116;2022-12-07T14:58:19;93988.41;;;7.03;94.04
55590;BME280;41452;42.780;23.116;2022-12-07T15:00:45;93968.56;;;6.77;94.10
55590;BME280;41452;42.780;23.116;2022-12-07T15:03:12;93965.22;;;6.70;93.11